Wan Hai 501 — S6AS7 — position and weather

sailwx.info

Track history (hours):
 
Tides and Currents Weather Stations Pressure Air Temp Water Temp Dewpoint Dewpoint Depression Visibility Wind Speed Wind Dir Waves Ship Positions

Wan Hai 501

Last reported at 2016-Feb-02 18:27 UTC. Time now 2016-Feb-08 12:24 UTC.
Position N 01°14' E 103°42'.

Length 269 m; draft 12.4 m.

Type: Cargo ship. MMSI: 563382000.

Date/timePositionNaut miles runAvg speedWind from/ knotsBaromVisibWave heightAir tempDewpointWater temp
2016-Feb-02 18:27N 01°14' E 103°42'5 5.1
2016-Feb-02 17:30N 01°17' E 103°45'0 0.0
2016-Feb-02 16:30N 01°17' E 103°45'0 0.0
2016-Feb-02 15:32N 01°17' E 103°45'0 0.0
2016-Feb-02 14:30N 01°17' E 103°45'0 0.0
2016-Feb-02 13:32N 01°17' E 103°45'0 0.1
2016-Feb-02 12:32N 01°17' E 103°46'0 0.1
2016-Feb-02 11:29N 01°17' E 103°45'0 0.0
2016-Feb-02 10:29N 01°17' E 103°45'0 0.1
2016-Feb-02 09:30N 01°17' E 103°46'0 0.0
2016-Feb-02 08:29N 01°17' E 103°46'0 0.1
2016-Feb-02 07:29N 01°17' E 103°45'0 0.0
2016-Feb-02 06:29N 01°17' E 103°45'0 0.3
2016-Feb-02 05:33N 01°17' E 103°46'5 5.1
2016-Feb-02 04:33N 01°13' E 103°48'8 7.5
2016-Feb-02 03:33N 01°14' E 103°56'1211.7
2016-Feb-02 02:33N 01°16' E 104°07'  
2016-Jan-30 02:33N 22°07' E 114°17'1412.2
2016-Jan-30 01:26N 22°16' E 114°06'3 3.7
2016-Jan-30 00:33N 22°19' E 114°07'0 0.0
2016-Jan-29 23:27N 22°19' E 114°07'0 0.0
2016-Jan-29 22:33N 22°19' E 114°07'0 0.0
2016-Jan-29 21:33N 22°19' E 114°07'0 0.0
2016-Jan-29 20:27N 22°19' E 114°07'0 0.0
2016-Jan-29 19:33N 22°19' E 114°07'0 0.0
2016-Jan-29 18:33N 22°19' E 114°07'0 0.0
2016-Jan-29 17:30N 22°19' E 114°07'0 0.0
2016-Jan-29 16:33N 22°19' E 114°07'0 0.0
2016-Jan-29 15:30N 22°19' E 114°07'0 0.0
2016-Jan-29 14:30N 22°19' E 114°07'0 0.0
2016-Jan-29 13:30N 22°19' E 114°07'0 0.0
2016-Jan-29 12:24N 22°19' E 114°07'0 0.0
2016-Jan-29 11:33N 22°19' E 114°07'0 0.1
2016-Jan-29 10:33N 22°19' E 114°07'0 0.1
2016-Jan-29 09:33N 22°20' E 114°07'7 6.6
2016-Jan-29 08:31N 22°13' E 114°10'8 7.6
2016-Jan-29 07:25N 22°08' E 114°17'1315.0
2016-Jan-29 06:33N 22°10' E 114°31'12917.4
2016-Jan-28 23:09N 22°52' E 116°43'1016.4
2016-Jan-28 22:30N 22°57' E 116°53'1616.4
2016-Jan-28 21:32N 23°05' E 117°09'8315.3
2016-Jan-28 16:09N 23°51' E 118°23'1614.9
2016-Jan-28 15:04N 24°01' E 118°37'4014.5
2016-Jan-28 12:17N 24°29' E 119°09'35016.9
2016-Jan-27 15:33N 29°31' E 122°26'1413.8
2016-Jan-27 14:31N 29°44' E 122°20'9 9.7
2016-Jan-27 13:33N 29°50' E 122°12'1010.4
2016-Jan-27 12:33N 29°46' E 122°01'0 0.0
2016-Jan-26 20:15N 29°47' E 122°01'0 0.2
2016-Jan-26 19:33N 29°46' E 122°01'1110.8
2016-Jan-26 18:33N 29°51' E 122°12'1211.5
2016-Jan-26 17:33N 29°44' E 122°24'99 2.7
2016-Jan-25 04:21N 31°18' E 121°47'6 1.5
2016-Jan-25 00:26N 31°20' E 121°40'0 0.0
2016-Jan-24 23:32N 31°20' E 121°40'0 0.0
2016-Jan-24 22:32N 31°20' E 121°40'0 0.0
2016-Jan-24 21:08N 31°20' E 121°40'0 0.0
2016-Jan-24 20:29N 31°20' E 121°40'0 0.0
2016-Jan-24 19:32N 31°20' E 121°40'0 0.0
2016-Jan-24 18:32N 31°20' E 121°40'0 0.0
2016-Jan-24 17:26N 31°20' E 121°40'0 0.0
2016-Jan-24 16:26N 31°20' E 121°40'0 0.0
2016-Jan-24 15:32N 31°20' E 121°40'0 0.0
2016-Jan-24 14:20N 31°20' E 121°40'0 0.0
2016-Jan-24 13:23N 31°20' E 121°40'0 0.0
2016-Jan-24 12:29N 31°20' E 121°40'0 0.0
2016-Jan-24 08:32N 31°20' E 121°40'0 0.0
2016-Jan-24 06:23N 31°20' E 121°40'0 0.0
2016-Jan-24 05:29N 31°20' E 121°40'0 0.0
2016-Jan-24 04:29N 31°20' E 121°40'0 0.0
2016-Jan-24 02:29N 31°20' E 121°40'0 0.0
2016-Jan-24 01:17N 31°20' E 121°40'0 0.0
2016-Jan-23 23:29N 31°20' E 121°40'0 0.0
2016-Jan-23 22:20N 31°20' E 121°40'  
Track history (hours):
 
Tides and Currents Weather Stations Pressure Air Temp Water Temp Dewpoint Dewpoint Depression Visibility Wind Speed Wind Dir Waves Ship Positions

Wan Hai 501

Last reported at 2016-Feb-02 18:27 UTC. Time now 2016-Feb-08 12:24 UTC.
Position N 01°14' E 103°42'.

Length 269 m; draft 12.4 m.

Type: Cargo ship. MMSI: 563382000.

Date/timePositionNaut miles runAvg speedWind from/ knotsBaromVisibWave heightAir tempDewpointWater temp
2016-Feb-02 18:27N 01°14' E 103°42'5 5.1
2016-Feb-02 17:30N 01°17' E 103°45'0 0.0
2016-Feb-02 16:30N 01°17' E 103°45'0 0.0
2016-Feb-02 15:32N 01°17' E 103°45'0 0.0
2016-Feb-02 14:30N 01°17' E 103°45'0 0.0
2016-Feb-02 13:32N 01°17' E 103°45'0 0.1
2016-Feb-02 12:32N 01°17' E 103°46'0 0.1
2016-Feb-02 11:29N 01°17' E 103°45'0 0.0
2016-Feb-02 10:29N 01°17' E 103°45'0 0.1
2016-Feb-02 09:30N 01°17' E 103°46'0 0.0
2016-Feb-02 08:29N 01°17' E 103°46'0 0.1
2016-Feb-02 07:29N 01°17' E 103°45'0 0.0
2016-Feb-02 06:29N 01°17' E 103°45'0 0.3
2016-Feb-02 05:33N 01°17' E 103°46'5 5.1
2016-Feb-02 04:33N 01°13' E 103°48'8 7.5
2016-Feb-02 03:33N 01°14' E 103°56'1211.7
2016-Feb-02 02:33N 01°16' E 104°07'  
2016-Jan-30 02:33N 22°07' E 114°17'1412.2
2016-Jan-30 01:26N 22°16' E 114°06'3 3.7
2016-Jan-30 00:33N 22°19' E 114°07'0 0.0
2016-Jan-29 23:27N 22°19' E 114°07'0 0.0
2016-Jan-29 22:33N 22°19' E 114°07'0 0.0
2016-Jan-29 21:33N 22°19' E 114°07'0 0.0
2016-Jan-29 20:27N 22°19' E 114°07'0 0.0
2016-Jan-29 19:33N 22°19' E 114°07'0 0.0
2016-Jan-29 18:33N 22°19' E 114°07'0 0.0
2016-Jan-29 17:30N 22°19' E 114°07'0 0.0
2016-Jan-29 16:33N 22°19' E 114°07'0 0.0
2016-Jan-29 15:30N 22°19' E 114°07'0 0.0
2016-Jan-29 14:30N 22°19' E 114°07'0 0.0
2016-Jan-29 13:30N 22°19' E 114°07'0 0.0
2016-Jan-29 12:24N 22°19' E 114°07'0 0.0
2016-Jan-29 11:33N 22°19' E 114°07'0 0.1
2016-Jan-29 10:33N 22°19' E 114°07'0 0.1
2016-Jan-29 09:33N 22°20' E 114°07'7 6.6
2016-Jan-29 08:31N 22°13' E 114°10'8 7.6
2016-Jan-29 07:25N 22°08' E 114°17'1315.0
2016-Jan-29 06:33N 22°10' E 114°31'12917.4
2016-Jan-28 23:09N 22°52' E 116°43'1016.4
2016-Jan-28 22:30N 22°57' E 116°53'1616.4
2016-Jan-28 21:32N 23°05' E 117°09'8315.3
2016-Jan-28 16:09N 23°51' E 118°23'1614.9
2016-Jan-28 15:04N 24°01' E 118°37'4014.5
2016-Jan-28 12:17N 24°29' E 119°09'35016.9
2016-Jan-27 15:33N 29°31' E 122°26'1413.8
2016-Jan-27 14:31N 29°44' E 122°20'9 9.7
2016-Jan-27 13:33N 29°50' E 122°12'1010.4
2016-Jan-27 12:33N 29°46' E 122°01'0 0.0
2016-Jan-26 20:15N 29°47' E 122°01'0 0.2
2016-Jan-26 19:33N 29°46' E 122°01'1110.8
2016-Jan-26 18:33N 29°51' E 122°12'1211.5
2016-Jan-26 17:33N 29°44' E 122°24'99 2.7
2016-Jan-25 04:21N 31°18' E 121°47'6 1.5
2016-Jan-25 00:26N 31°20' E 121°40'0 0.0
2016-Jan-24 23:32N 31°20' E 121°40'0 0.0
2016-Jan-24 22:32N 31°20' E 121°40'0 0.0
2016-Jan-24 21:08N 31°20' E 121°40'0 0.0
2016-Jan-24 20:29N 31°20' E 121°40'0 0.0
2016-Jan-24 19:32N 31°20' E 121°40'0 0.0
2016-Jan-24 18:32N 31°20' E 121°40'0 0.0
2016-Jan-24 17:26N 31°20' E 121°40'0 0.0
2016-Jan-24 16:26N 31°20' E 121°40'0 0.0
2016-Jan-24 15:32N 31°20' E 121°40'0 0.0
2016-Jan-24 14:20N 31°20' E 121°40'0 0.0
2016-Jan-24 13:23N 31°20' E 121°40'0 0.0
2016-Jan-24 12:29N 31°20' E 121°40'0 0.0
2016-Jan-24 08:32N 31°20' E 121°40'0 0.0
2016-Jan-24 06:23N 31°20' E 121°40'0 0.0
2016-Jan-24 05:29N 31°20' E 121°40'0 0.0
2016-Jan-24 04:29N 31°20' E 121°40'0 0.0
2016-Jan-24 02:29N 31°20' E 121°40'0 0.0
2016-Jan-24 01:17N 31°20' E 121°40'0 0.0
2016-Jan-23 23:29N 31°20' E 121°40'0 0.0
2016-Jan-23 22:20N 31°20' E 121°40'  

Dump ship's entire track history